Time;durP1;ratioP1;P1;durP2;ratioP2;P2;SDS_P1;SDS_P2;PMS_P1;PMS_P2;Temp;Humidity;BMP_temperature;BMP_pressure;BME280_temperature;BME280_humidity;BME280_pressure;Samples;Min_cycle;Max_cycle;Signal;HPM_P1;HPM_P2
2021/04/29 00:02:21;;;;;;;13.60;11.87;;;12.10;99.90;;;;;;5065137;28;20191;-76
2021/04/29 00:04:48;;;;;;;13.00;11.80;;;12.10;99.90;;;;;;5068876;28;20198;-76
2021/04/29 00:07:14;;;;;;;13.30;12.10;;;12.10;99.90;;;;;;5065112;28;20271;-76
2021/04/29 00:09:40;;;;;;;13.17;11.93;;;12.10;99.90;;;;;;5062690;28;20575;-76
2021/04/29 00:12:08;;;;;;;15.33;13.80;;;12.10;99.90;;;;;;5066408;28;20667;-76
2021/04/29 00:14:35;;;;;;;14.83;13.43;;;12.10;99.90;;;;;;5063680;28;20187;-76
2021/04/29 00:17:01;;;;;;;14.33;12.97;;;12.10;99.90;;;;;;5063726;28;20263;-76
2021/04/29 00:19:29;;;;;;;14.30;12.80;;;12.10;99.90;;;;;;5064916;28;20205;-76
2021/04/29 00:21:56;;;;;;;14.70;13.30;;;12.00;99.90;;;;;;5061062;28;20192;-76
2021/04/29 00:24:22;;;;;;;13.90;12.60;;;12.00;99.90;;;;;;5062552;28;20191;-77
2021/04/29 00:26:48;;;;;;;15.13;13.73;;;12.00;99.90;;;;;;5066231;28;20219;-76
2021/04/29 00:29:14;;;;;;;13.83;12.63;;;12.00;99.90;;;;;;5066701;28;20209;-76
2021/04/29 00:31:41;;;;;;;15.57;14.03;;;12.00;99.90;;;;;;5063511;28;20208;-76
2021/04/29 00:34:07;;;;;;;14.77;13.37;;;12.00;99.90;;;;;;5066009;28;20191;-76
2021/04/29 00:36:34;;;;;;;14.53;13.23;;;12.00;99.90;;;;;;5064855;28;20221;-76
2021/04/29 00:39:01;;;;;;;15.77;12.57;;;12.00;99.90;;;;;;5069237;28;20195;-77
2021/04/29 00:41:27;;;;;;;13.83;12.63;;;12.00;99.90;;;;;;5059822;28;20197;-76
2021/04/29 00:43:53;;;;;;;15.10;13.70;;;12.00;99.90;;;;;;5066339;28;20201;-76
2021/04/29 00:46:21;;;;;;;14.07;12.87;;;12.00;99.90;;;;;;5066160;28;20212;-76
2021/04/29 00:48:47;;;;;;;13.83;12.63;;;12.00;99.90;;;;;;5065419;28;20203;-76
2021/04/29 00:51:14;;;;;;;13.50;12.30;;;12.00;99.90;;;;;;5066775;28;20188;-76
2021/04/29 00:53:43;;;;;;;12.23;11.13;;;12.00;99.90;;;;;;5066850;28;20265;-76
2021/04/29 00:56:10;;;;;;;11.53;10.53;;;11.90;99.90;;;;;;5061830;28;20285;-75
2021/04/29 00:58:37;;;;;;;10.77;9.87;;;11.90;99.90;;;;;;5069852;28;20204;-76
2021/04/29 01:01:04;;;;;;;10.60;9.60;;;11.90;99.90;;;;;;5064857;28;20187;-76
2021/04/29 01:03:35;;;;;;;10.03;9.23;;;12.00;99.90;;;;;;5063006;28;20202;-77
2021/04/29 01:06:07;;;;;;;9.47;8.67;;;11.90;99.90;;;;;;5064787;28;20588;-76
2021/04/29 01:08:40;;;;;;;9.10;8.30;;;12.00;99.90;;;;;;5062482;28;20258;-75
2021/04/29 01:11:13;;;;;;;9.27;8.40;;;11.90;99.90;;;;;;5055177;28;20195;-76
2021/04/29 01:13:43;;;;;;;9.17;8.37;;;11.90;99.90;;;;;;5067577;28;20195;-76
2021/04/29 01:16:11;;;;;;;8.00;7.40;;;11.90;99.90;;;;;;5063297;28;20211;-77
2021/04/29 01:18:39;;;;;;;8.10;7.50;;;11.90;99.90;;;;;;5054235;28;20244;-76
2021/04/29 01:21:11;;;;;;;7.50;7.00;;;11.90;99.90;;;;;;5054639;28;20206;-76
2021/04/29 01:23:50;;;;;;;7.33;6.83;;;11.90;99.90;;;;;;5064006;28;20211;-76
2021/04/29 01:26:20;;;;;;;7.30;6.80;;;11.80;99.90;;;;;;5057400;28;20599;-76
2021/04/29 01:28:48;;;;;;;7.53;6.90;;;11.80;99.90;;;;;;5063741;28;20204;-77
2021/04/29 01:31:15;;;;;;;7.00;6.50;;;11.90;99.90;;;;;;5062107;28;20208;-76
2021/04/29 01:33:41;;;;;;;6.43;6.03;;;11.80;99.90;;;;;;5062466;28;20620;-76
2021/04/29 01:36:09;;;;;;;6.70;6.30;;;11.90;99.90;;;;;;5061456;28;20195;-76
2021/04/29 01:38:36;;;;;;;6.40;6.00;;;11.90;99.90;;;;;;5061209;28;20181;-76
2021/04/29 01:41:03;;;;;;;6.93;6.43;;;11.90;99.90;;;;;;5065748;28;20203;-76
2021/04/29 01:43:30;;;;;;;7.13;6.63;;;11.90;99.90;;;;;;5062180;28;20191;-76
2021/04/29 01:45:58;;;;;;;6.93;6.43;;;11.90;99.90;;;;;;5064748;28;20218;-76
2021/04/29 01:48:24;;;;;;;6.47;6.07;;;11.80;99.90;;;;;;5062204;28;20241;-76
2021/04/29 01:50:50;;;;;;;6.80;6.30;;;11.80;99.90;;;;;;5058270;28;20699;-76
2021/04/29 01:53:17;;;;;;;6.50;6.10;;;11.80;99.90;;;;;;5065104;28;20228;-76
2021/04/29 01:55:45;;;;;;;6.80;6.30;;;11.80;99.90;;;;;;5062337;28;20198;-76
2021/04/29 01:58:12;;;;;;;6.40;6.00;;;11.80;99.90;;;;;;5063948;28;20218;-76
2021/04/29 02:00:38;;;;;;;6.50;6.00;;;11.80;99.90;;;;;;5064246;28;20252;-76
2021/04/29 02:03:05;;;;;;;5.60;5.20;;;11.80;99.90;;;;;;5049743;28;20194;-76
2021/04/29 02:05:32;;;;;;;5.27;4.87;;;11.80;99.90;;;;;;5060120;28;20211;-77
2021/04/29 02:07:58;;;;;;;5.90;5.50;;;11.90;99.90;;;;;;5063419;28;20215;-76
2021/04/29 02:10:25;;;;;;;5.50;5.20;;;11.90;99.90;;;;;;5061616;28;20188;-76
2021/04/29 02:12:57;;;;;;;5.10;4.80;;;11.90;99.90;;;;;;5063184;28;20209;-76
2021/04/29 02:15:28;;;;;;;5.10;4.80;;;11.80;99.90;;;;;;5062788;28;20191;-76
2021/04/29 02:17:59;;;;;;;5.30;5.00;;;11.90;99.90;;;;;;5065371;28;20709;-76
2021/04/29 02:20:29;;;;;;;5.03;4.73;;;11.90;99.90;;;;;;5064156;28;20252;-76
2021/04/29 02:22:57;;;;;;;5.10;4.80;;;11.90;99.90;;;;;;5054129;28;20653;-76
2021/04/29 02:25:27;;;;;;;5.30;5.00;;;11.90;99.90;;;;;;5062481;28;20199;-76
2021/04/29 02:27:54;;;;;;;5.37;4.97;;;11.90;99.90;;;;;;5061831;28;20223;-76
2021/04/29 02:30:21;;;;;;;5.43;5.10;;;11.90;99.90;;;;;;5060884;28;20333;-76
2021/04/29 02:32:48;;;;;;;5.10;4.70;;;11.90;99.90;;;;;;5062229;28;20199;-76
2021/04/29 02:35:16;;;;;;;6.23;5.20;;;11.90;99.90;;;;;;5059324;28;20195;-78
2021/04/29 02:37:45;;;;;;;5.73;5.33;;;11.90;99.90;;;;;;5055874;28;20604;-77
2021/04/29 02:40:13;;;;;;;5.00;4.60;;;11.90;99.90;;;;;;5062787;28;20191;-77
2021/04/29 02:42:40;;;;;;;4.97;4.60;;;11.90;99.90;;;;;;5059664;28;20683;-76
2021/04/29 02:45:08;;;;;;;5.47;4.93;;;11.90;99.90;;;;;;5063686;28;20206;-75
2021/04/29 02:47:36;;;;;;;4.80;4.40;;;11.90;99.90;;;;;;5052181;28;20218;-76
2021/04/29 02:50:03;;;;;;;4.50;4.20;;;11.90;99.90;;;;;;5050396;28;20199;-76
2021/04/29 02:52:29;;;;;;;4.90;4.50;;;11.90;99.90;;;;;;5055326;28;20247;-76
2021/04/29 02:54:57;;;;;;;4.20;3.90;;;11.80;99.90;;;;;;5054550;28;20198;-76
2021/04/29 02:57:23;;;;;;;4.40;4.10;;;11.80;99.90;;;;;;5085094;22;20227;-74
2021/04/29 02:59:50;;;;;;;7.33;4.30;;;11.80;99.90;;;;;;5067076;28;20195;-74
2021/04/29 03:02:16;;;;;;;4.63;4.30;;;11.80;99.90;;;;;;5066238;28;20256;-75
2021/04/29 03:04:43;;;;;;;4.10;3.80;;;11.80;99.90;;;;;;5068808;28;20262;-75
2021/04/29 03:07:09;;;;;;;4.10;3.87;;;11.70;99.90;;;;;;5064541;28;20248;-79
2021/04/29 03:09:36;;;;;;;4.07;3.87;;;11.70;99.90;;;;;;5065330;28;20608;-79
2021/04/29 03:12:07;;;;;;;5.10;4.67;;;11.70;99.90;;;;;;5073896;28;20598;-77
2021/04/29 03:14:34;;;;;;;4.33;4.03;;;11.70;99.90;;;;;;5063094;28;20187;-79
2021/04/29 03:17:00;;;;;;;4.27;3.97;;;11.70;99.90;;;;;;5074623;28;20207;-79
2021/04/29 03:19:26;;;;;;;4.10;3.80;;;11.60;99.90;;;;;;5070846;28;20202;-79
2021/04/29 03:21:53;;;;;;;4.23;3.93;;;11.60;99.90;;;;;;5066641;28;20187;-76
2021/04/29 03:24:19;;;;;;;5.10;4.80;;;11.60;99.90;;;;;;5074425;28;20190;-79
2021/04/29 03:26:45;;;;;;;5.10;4.80;;;11.60;99.90;;;;;;5070128;28;20264;-78
2021/04/29 03:29:13;;;;;;;5.53;5.13;;;11.60;99.90;;;;;;5067471;28;20222;-78
2021/04/29 03:31:39;;;;;;;6.20;5.67;;;11.60;99.90;;;;;;5070932;28;20353;-79
2021/04/29 03:34:06;;;;;;;5.80;5.40;;;11.50;99.90;;;;;;5062327;28;20574;-77
2021/04/29 03:36:34;;;;;;;6.30;5.80;;;11.50;99.90;;;;;;5069595;28;20194;-78
2021/04/29 03:39:00;;;;;;;6.37;5.97;;;11.50;99.90;;;;;;5075335;28;20255;-77
2021/04/29 03:41:26;;;;;;;7.07;6.63;;;11.50;99.90;;;;;;5068729;28;20194;-77
2021/04/29 03:43:52;;;;;;;7.57;7.13;;;11.40;99.90;;;;;;5068177;28;20205;-78
2021/04/29 03:46:25;;;;;;;6.77;6.37;;;11.40;99.90;;;;;;5062655;28;20242;-77
2021/04/29 03:48:51;;;;;;;6.53;6.13;;;11.40;99.90;;;;;;5065441;28;20574;-78
2021/04/29 03:51:18;;;;;;;6.63;6.23;;;11.30;99.90;;;;;;5066597;28;20202;-77
2021/04/29 03:53:44;;;;;;;6.40;6.10;;;11.30;99.90;;;;;;5063088;28;20195;-77
2021/04/29 03:56:10;;;;;;;7.20;6.70;;;11.30;99.90;;;;;;5071306;28;20195;-77
2021/04/29 03:58:37;;;;;;;6.60;6.30;;;11.30;99.90;;;;;;5067413;28;20230;-77
2021/04/29 04:01:03;;;;;;;6.87;6.37;;;11.30;99.90;;;;;;5069597;28;20194;-78
2021/04/29 04:03:30;;;;;;;7.00;6.60;;;11.20;99.90;;;;;;5069521;28;20198;-77
2021/04/29 04:05:57;;;;;;;7.10;6.70;;;11.20;99.90;;;;;;5069618;28;20210;-78
2021/04/29 04:08:23;;;;;;;6.80;6.40;;;11.20;99.90;;;;;;5065637;28;20216;-78
2021/04/29 04:10:49;;;;;;;6.70;6.30;;;11.20;99.90;;;;;;5062838;28;20195;-78
2021/04/29 04:13:17;;;;;;;6.83;6.37;;;11.20;99.90;;;;;;5071145;28;20190;-78
2021/04/29 04:15:44;;;;;;;7.10;6.70;;;11.20;99.90;;;;;;5066813;28;20655;-78
2021/04/29 04:18:11;;;;;;;7.07;6.57;;;11.20;99.90;;;;;;5068871;28;20221;-77
2021/04/29 04:20:38;;;;;;;7.00;6.60;;;11.10;99.90;;;;;;5068680;28;20218;-77
2021/04/29 04:23:05;;;;;;;6.73;6.23;;;11.10;99.90;;;;;;5062086;28;20595;-77
2021/04/29 04:25:31;;;;;;;7.53;7.03;;;11.10;99.90;;;;;;5071404;28;20195;-78
2021/04/29 04:27:57;;;;;;;7.37;6.87;;;11.10;99.90;;;;;;5073931;28;20702;-78
2021/04/29 04:30:24;;;;;;;6.70;6.10;;;11.00;99.90;;;;;;5073154;28;20693;-78
2021/04/29 04:32:50;;;;;;;6.80;6.23;;;11.00;99.90;;;;;;5071567;28;20202;-78
2021/04/29 04:35:17;;;;;;;6.80;6.40;;;11.10;99.90;;;;;;5072319;28;20241;-78
2021/04/29 04:37:45;;;;;;;6.30;6.00;;;11.10;99.90;;;;;;5072239;28;20206;-78
2021/04/29 04:40:12;;;;;;;7.00;6.50;;;11.10;99.90;;;;;;5071181;28;20191;-78
2021/04/29 04:42:38;;;;;;;7.33;6.63;;;11.10;99.90;;;;;;5074429;28;20197;-78
2021/04/29 04:45:07;;;;;;;7.40;6.90;;;11.10;99.90;;;;;;5070040;28;20191;-78
2021/04/29 04:47:34;;;;;;;7.33;6.93;;;11.10;99.90;;;;;;5068698;28;20229;-77
2021/04/29 04:50:00;;;;;;;6.87;6.47;;;11.20;99.90;;;;;;5072761;28;20583;-78
2021/04/29 04:52:27;;;;;;;7.53;7.03;;;11.20;99.90;;;;;;5068812;28;20195;-78
2021/04/29 04:54:54;;;;;;;7.70;7.20;;;11.30;99.90;;;;;;5068372;28;20195;-78
2021/04/29 04:57:21;;;;;;;7.53;7.03;;;11.40;99.90;;;;;;5082328;28;20219;-78
2021/04/29 04:59:47;;;;;;;7.97;7.20;;;11.40;99.90;;;;;;5072845;28;20201;-78
2021/04/29 05:02:14;;;;;;;7.50;7.00;;;11.40;99.90;;;;;;5063302;28;20202;-78
2021/04/29 05:04:40;;;;;;;7.67;7.17;;;11.40;99.90;;;;;;5070382;28;20279;-78
2021/04/29 05:07:07;;;;;;;7.33;6.80;;;11.40;99.90;;;;;;5071166;28;20218;-78
2021/04/29 05:09:34;;;;;;;6.90;6.50;;;11.40;99.90;;;;;;5081013;28;20198;-78
2021/04/29 05:12:01;;;;;;;7.53;6.93;;;11.50;99.90;;;;;;5070710;28;20198;-78
2021/04/29 05:14:28;;;;;;;7.10;6.60;;;11.50;99.90;;;;;;5072589;28;20190;-78
2021/04/29 05:16:55;;;;;;;6.60;6.20;;;11.50;99.90;;;;;;5073605;28;20297;-78
2021/04/29 05:19:22;;;;;;;7.30;6.80;;;11.50;99.90;;;;;;5073421;28;20190;-78
2021/04/29 05:21:48;;;;;;;6.53;6.03;;;11.60;99.90;;;;;;5073738;28;20199;-78
2021/04/29 05:24:14;;;;;;;6.50;6.10;;;11.70;99.90;;;;;;5067997;28;20206;-78
2021/04/29 05:26:41;;;;;;;7.03;6.50;;;11.80;99.90;;;;;;5073163;28;20225;-78
2021/04/29 05:29:08;;;;;;;6.90;6.40;;;11.80;99.90;;;;;;5070434;28;20202;-78
2021/04/29 05:31:35;;;;;;;7.13;6.63;;;11.80;99.90;;;;;;5070447;28;20698;-78
2021/04/29 05:34:02;;;;;;;6.90;6.40;;;11.80;99.90;;;;;;5071566;28;20202;-78
2021/04/29 05:36:28;;;;;;;6.70;6.30;;;11.80;99.90;;;;;;5070296;28;20202;-78
2021/04/29 05:38:54;;;;;;;7.27;6.77;;;11.80;99.90;;;;;;5071064;28;20240;-78
2021/04/29 05:41:21;;;;;;;7.27;6.67;;;11.80;99.90;;;;;;5073460;28;20190;-78
2021/04/29 05:43:47;;;;;;;6.97;6.47;;;11.80;99.90;;;;;;5071250;28;20209;-78
2021/04/29 05:46:15;;;;;;;6.67;6.17;;;11.90;99.90;;;;;;5073058;28;20202;-79
2021/04/29 05:48:41;;;;;;;7.00;6.50;;;11.90;99.90;;;;;;5068666;28;20694;-79
2021/04/29 05:51:07;;;;;;;6.50;6.00;;;11.90;99.90;;;;;;5069732;28;20190;-78
2021/04/29 05:53:33;;;;;;;6.30;5.80;;;11.90;99.90;;;;;;5069886;28;20236;-78
2021/04/29 05:56:00;;;;;;;6.30;5.90;;;12.00;99.90;;;;;;5069485;28;20202;-78
2021/04/29 05:58:26;;;;;;;6.20;5.80;;;12.00;99.90;;;;;;5072774;28;20215;-78
2021/04/29 06:00:53;;;;;;;6.23;5.83;;;12.10;99.90;;;;;;5071135;28;20303;-78
2021/04/29 06:03:22;;;;;;;6.13;5.73;;;12.10;99.90;;;;;;5071338;28;20215;-78
2021/04/29 06:05:49;;;;;;;6.17;5.67;;;12.20;99.90;;;;;;5071506;28;20669;-78
2021/04/29 06:08:15;;;;;;;5.63;5.30;;;12.30;99.90;;;;;;5072397;28;20215;-79
2021/04/29 06:10:42;;;;;;;6.63;6.07;;;12.40;99.90;;;;;;5068331;28;20191;-78
2021/04/29 06:13:09;;;;;;;6.33;5.83;;;12.40;99.90;;;;;;5067285;28;20194;-79
2021/04/29 06:15:36;;;;;;;6.27;5.87;;;12.40;99.90;;;;;;5072678;28;20264;-78
2021/04/29 06:18:02;;;;;;;6.07;5.67;;;12.40;99.90;;;;;;5067240;28;20219;-79
2021/04/29 06:20:29;;;;;;;6.10;5.60;;;12.40;99.90;;;;;;5071326;28;20199;-78
2021/04/29 06:22:56;;;;;;;5.83;5.43;;;12.40;99.90;;;;;;5070530;28;20221;-78
2021/04/29 06:25:23;;;;;;;5.70;5.30;;;12.40;99.90;;;;;;5070836;28;20201;-78
2021/04/29 06:27:49;;;;;;;5.37;4.97;;;12.40;99.90;;;;;;5070348;28;20230;-78
2021/04/29 06:30:17;;;;;;;5.20;4.80;;;12.50;99.90;;;;;;5071623;28;20193;-78
2021/04/29 06:32:43;;;;;;;4.97;4.60;;;12.60;99.90;;;;;;5070689;28;20230;-78
2021/04/29 06:35:10;;;;;;;4.97;4.67;;;12.70;99.90;;;;;;5071566;28;20681;-79
2021/04/29 06:37:38;;;;;;;5.10;4.70;;;12.80;99.90;;;;;;5072322;28;20211;-77
2021/04/29 06:40:05;;;;;;;4.77;4.23;;;13.10;99.90;;;;;;5069142;28;20203;-78
2021/04/29 06:42:31;;;;;;;3.20;2.87;;;13.20;99.90;;;;;;5068126;28;20586;-78
2021/04/29 06:44:58;;;;;;;4.00;3.40;;;13.40;99.90;;;;;;5070212;28;20203;-78
2021/04/29 06:47:27;;;;;;;5.07;4.67;;;13.50;99.90;;;;;;5070417;28;20299;-78
2021/04/29 06:49:54;;;;;;;7.30;6.80;;;13.80;99.90;;;;;;5063181;28;20744;-77
2021/04/29 06:52:20;;;;;;;5.33;3.60;;;14.00;99.90;;;;;;5071875;28;20200;-77
2021/04/29 06:54:48;;;;;;;6.43;5.93;;;14.10;99.90;;;;;;5068183;28;20202;-78
2021/04/29 06:57:15;;;;;;;7.90;7.40;;;14.30;99.90;;;;;;5061782;28;20222;-78
2021/04/29 06:59:41;;;;;;;7.40;6.90;;;14.50;99.90;;;;;;5064995;28;20681;-78
2021/04/29 07:02:07;;;;;;;7.30;6.80;;;14.60;99.90;;;;;;5069258;28;20187;-77
2021/04/29 07:04:34;;;;;;;7.70;7.10;;;14.70;99.90;;;;;;5070564;28;20211;-77
2021/04/29 07:07:01;;;;;;;7.30;6.70;;;14.80;99.90;;;;;;5068703;28;20697;-78
2021/04/29 07:09:28;;;;;;;4.30;4.00;;;15.00;99.90;;;;;;5070511;28;20202;-77
2021/04/29 07:11:56;;;;;;;2.63;2.43;;;15.10;99.90;;;;;;5071461;28;20205;-78
2021/04/29 07:14:22;;;;;;;3.00;2.70;;;15.40;99.90;;;;;;5071514;28;20202;-78
2021/04/29 07:16:49;;;;;;;6.17;5.67;;;15.70;99.90;;;;;;5070772;28;20229;-78
2021/04/29 07:19:16;;;;;;;7.10;6.60;;;16.20;99.90;;;;;;5067938;28;20195;-78
2021/04/29 07:21:42;;;;;;;7.93;7.33;;;16.50;99.90;;;;;;5072261;28;20751;-76
2021/04/29 07:24:09;;;;;;;8.27;7.53;;;17.00;99.90;;;;;;5070863;28;20194;-78
2021/04/29 07:26:35;;;;;;;7.40;6.90;;;17.70;99.90;;;;;;5072981;28;20211;-76
2021/04/29 07:29:04;;;;;;;5.17;4.67;;;18.40;99.90;;;;;;5073631;28;20223;-78
2021/04/29 07:31:30;;;;;;;6.67;5.33;;;18.90;99.90;;;;;;5074207;28;20194;-78
2021/04/29 07:33:56;;;;;;;8.13;5.90;;;19.40;99.90;;;;;;5085945;28;20292;-76
2021/04/29 07:36:23;;;;;;;6.00;5.47;;;19.60;99.90;;;;;;5077064;28;20714;-78
2021/04/29 07:38:49;;;;;;;6.07;5.00;;;19.90;99.90;;;;;;5067873;28;20195;-78
2021/04/29 07:41:15;;;;;;;6.07;5.47;;;19.60;99.90;;;;;;5073460;28;20199;-76
2021/04/29 07:43:42;;;;;;;5.87;4.87;;;19.60;99.90;;;;;;5065540;28;20204;-78
2021/04/29 07:46:09;;;;;;;3.87;3.53;;;19.30;99.90;;;;;;5068238;28;20680;-78
2021/04/29 07:48:35;;;;;;;6.87;6.37;;;19.20;99.90;;;;;;5053598;28;20219;-76
2021/04/29 07:51:01;;;;;;;6.80;4.43;;;19.10;99.90;;;;;;5054590;28;20196;-77
2021/04/29 07:53:28;;;;;;;8.17;7.47;;;18.90;99.90;;;;;;5073776;28;20214;-78
2021/04/29 07:55:54;;;;;;;7.93;7.23;;;19.00;99.90;;;;;;5072148;28;20202;-78
2021/04/29 07:58:20;;;;;;;8.13;7.37;;;19.40;99.90;;;;;;5073687;28;20288;-78
2021/04/29 08:00:47;;;;;;;7.40;6.80;;;19.10;99.90;;;;;;5068960;28;20206;-78
2021/04/29 08:03:14;;;;;;;7.77;7.07;;;19.10;99.90;;;;;;5077327;28;20205;-76
2021/04/29 08:05:40;;;;;;;9.97;7.33;;;18.90;99.90;;;;;;5074562;28;20247;-76
2021/04/29 08:08:06;;;;;;;11.13;7.73;;;18.70;99.90;;;;;;5075168;28;20215;-77
2021/04/29 08:10:35;;;;;;;7.97;7.27;;;18.70;99.90;;;;;;5076246;28;20202;-77
2021/04/29 08:13:01;;;;;;;8.83;7.90;;;18.80;99.90;;;;;;5075155;28;20202;-77
2021/04/29 08:15:27;;;;;;;8.10;7.40;;;18.80;99.90;;;;;;5075940;28;20205;-77
2021/04/29 08:17:53;;;;;;;8.60;7.80;;;19.30;99.90;;;;;;5057352;28;20213;-78
2021/04/29 08:20:21;;;;;;;8.20;7.50;;;19.90;99.90;;;;;;5074063;28;20259;-78
2021/04/29 08:22:48;;;;;;;8.43;7.47;;;20.40;99.90;;;;;;5075775;28;20192;-79
2021/04/29 08:25:14;;;;;;;8.30;7.47;;;20.40;99.90;;;;;;5075968;28;20678;-78
2021/04/29 08:27:41;;;;;;;8.17;7.47;;;19.80;99.90;;;;;;5073232;28;20268;-78
2021/04/29 08:30:08;;;;;;;8.47;7.77;;;19.20;99.90;;;;;;5065575;28;20192;-78
2021/04/29 08:32:35;;;;;;;9.53;8.43;;;18.80;99.90;;;;;;5078101;28;20683;-78
2021/04/29 08:35:01;;;;;;;9.37;8.50;;;18.30;99.90;;;;;;5074752;28;20194;-78
2021/04/29 08:37:28;;;;;;;8.23;7.53;;;18.30;99.90;;;;;;5073942;28;20211;-78
2021/04/29 08:39:54;;;;;;;9.77;8.73;;;18.30;99.90;;;;;;5074863;28;20717;-79
2021/04/29 08:42:21;;;;;;;9.27;8.47;;;18.50;99.90;;;;;;5079085;28;20210;-79
2021/04/29 08:44:47;;;;;;;8.97;8.17;;;18.30;99.90;;;;;;5076347;28;20204;-78
2021/04/29 08:47:13;;;;;;;8.77;8.07;;;18.20;99.90;;;;;;5077650;28;20219;-79
2021/04/29 08:49:40;;;;;;;9.83;8.80;;;17.90;99.90;;;;;;5077081;28;20685;-79
2021/04/29 08:52:07;;;;;;;9.37;8.57;;;17.60;99.90;;;;;;5077381;28;20197;-76
2021/04/29 08:54:37;;;;;;;9.30;8.57;;;17.20;99.90;;;;;;5077609;28;20248;-78
2021/04/29 08:57:04;;;;;;;9.90;9.00;;;16.90;99.90;;;;;;5073621;28;20217;-77
2021/04/29 08:59:30;;;;;;;9.73;8.20;;;16.70;99.90;;;;;;5073891;28;20193;-79
2021/04/29 09:01:56;;;;;;;9.37;8.57;;;16.70;99.90;;;;;;5073767;28;20201;-79
2021/04/29 09:04:23;;;;;;;9.30;8.47;;;16.80;99.90;;;;;;5065421;28;20238;-79
2021/04/29 09:06:50;;;;;;;9.17;8.47;;;16.90;99.90;;;;;;5075244;28;20324;-78
2021/04/29 09:09:18;;;;;;;8.63;7.93;;;16.80;99.90;;;;;;5075250;28;20198;-77
2021/04/29 09:11:50;;;;;;;8.70;8.00;;;16.80;99.90;;;;;;5074776;28;20193;-77
2021/04/29 09:14:29;;;;;;;8.53;7.83;;;16.70;99.90;;;;;;5076202;28;20663;-78
2021/04/29 09:16:56;;;;;;;8.17;7.37;;;16.70;99.90;;;;;;5076355;28;20219;-77
2021/04/29 09:19:24;;;;;;;8.00;7.40;;;16.80;99.90;;;;;;5076458;28;20197;-79
2021/04/29 09:21:51;;;;;;;9.03;8.13;;;16.70;99.90;;;;;;5075084;28;20199;-80
2021/04/29 09:24:17;;;;;;;9.17;8.37;;;16.80;99.90;;;;;;5075015;28;20245;-78
2021/04/29 09:26:44;;;;;;;9.07;8.13;;;16.90;99.90;;;;;;5073354;28;20214;-78
2021/04/29 09:29:14;;;;;;;9.70;8.70;;;17.10;99.90;;;;;;5074137;28;20702;-78
2021/04/29 09:31:42;;;;;;;8.57;7.60;;;17.50;99.90;;;;;;5073963;28;20577;-80
2021/04/29 09:34:09;;;;;;;8.30;7.60;;;17.90;99.90;;;;;;5076323;28;20200;-79
2021/04/29 09:36:37;;;;;;;8.27;7.57;;;18.10;99.90;;;;;;5075660;28;20185;-79
2021/04/29 09:39:06;;;;;;;7.60;7.00;;;18.20;99.90;;;;;;5076043;28;20202;-79
2021/04/29 09:41:34;;;;;;;8.03;7.33;;;18.20;99.90;;;;;;5065135;28;20191;-78
2021/04/29 09:44:04;;;;;;;8.00;7.30;;;18.10;99.90;;;;;;5076025;28;20280;-79
2021/04/29 09:46:42;;;;;;;8.87;8.10;;;18.00;99.90;;;;;;5072875;28;20226;-78
2021/04/29 09:49:19;;;;;;;8.50;7.80;;;18.00;99.90;;;;;;5068856;28;20251;-78
2021/04/29 09:51:45;;;;;;;8.27;7.57;;;17.80;99.90;;;;;;5091392;28;20581;-78
2021/04/29 09:54:22;;;;;;;7.93;7.23;;;17.50;99.90;;;;;;5068441;28;20560;-76
2021/04/29 09:56:53;;;;;;;8.03;7.33;;;17.20;99.90;;;;;;5075385;28;20224;-79
2021/04/29 09:59:20;;;;;;;9.43;8.50;;;17.00;99.90;;;;;;5076066;28;20199;-79
2021/04/29 10:01:47;;;;;;;9.00;8.10;;;16.90;99.90;;;;;;5075664;28;20203;-78
2021/04/29 10:04:13;;;;;;;9.50;8.60;;;16.70;99.90;;;;;;5075512;28;20291;-79
2021/04/29 10:06:40;;;;;;;8.80;8.10;;;16.50;99.90;;;;;;5071051;28;20232;-79
2021/04/29 10:09:06;;;;;;;9.73;8.67;;;16.50;99.90;;;;;;5073140;28;20195;-79
2021/04/29 10:11:33;;;;;;;9.23;8.10;;;16.40;99.90;;;;;;5068709;28;20198;-77
2021/04/29 10:14:02;;;;;;;9.53;8.73;;;16.40;99.90;;;;;;5075415;28;20211;-77
2021/04/29 10:16:29;;;;;;;9.03;8.33;;;16.40;99.90;;;;;;5074826;28;20247;-77
2021/04/29 10:18:57;;;;;;;10.10;9.20;;;16.40;99.90;;;;;;5075002;28;20203;-77
2021/04/29 10:21:24;;;;;;;10.10;9.20;;;16.30;99.90;;;;;;5074720;28;20692;-78
2021/04/29 10:23:50;;;;;;;9.90;9.00;;;16.20;99.90;;;;;;5074361;28;20208;-78
2021/04/29 10:26:25;;;;;;;9.60;8.80;;;16.20;99.90;;;;;;5071719;28;20190;-78
2021/04/29 10:28:57;;;;;;;8.87;8.00;;;16.30;99.90;;;;;;5072630;28;20216;-78
2021/04/29 10:31:25;;;;;;;9.33;8.50;;;16.40;99.90;;;;;;5063791;28;20217;-77
2021/04/29 10:33:57;;;;;;;8.97;8.17;;;16.50;99.90;;;;;;5073526;28;20206;-78
2021/04/29 10:36:33;;;;;;;9.70;8.90;;;16.50;99.90;;;;;;5072857;28;20202;-76
2021/04/29 10:39:09;;;;;;;8.67;7.87;;;16.60;99.90;;;;;;5074995;28;20190;-78
2021/04/29 10:41:36;;;;;;;9.03;8.23;;;16.70;99.90;;;;;;5074219;28;20202;-78
2021/04/29 10:44:09;;;;;;;9.67;8.77;;;16.60;99.90;;;;;;5069788;28;20204;-79
2021/04/29 10:46:37;;;;;;;10.30;8.57;;;16.80;99.90;;;;;;5091162;28;20657;-77
2021/04/29 10:49:04;;;;;;;8.30;7.50;;;17.10;99.90;;;;;;5064616;28;20192;-79
2021/04/29 10:51:34;;;;;;;8.50;7.80;;;17.50;99.90;;;;;;5076320;28;20197;-77
2021/04/29 10:54:15;;;;;;;8.90;8.10;;;17.90;99.90;;;;;;5072164;28;20458;-77
2021/04/29 10:56:43;;;;;;;8.90;8.20;;;18.20;99.90;;;;;;5071814;28;20602;-78
2021/04/29 10:59:12;;;;;;;7.43;6.70;;;18.30;99.90;;;;;;5073172;28;20210;-78
2021/04/29 11:01:44;;;;;;;6.87;4.57;;;18.50;99.90;;;;;;5073130;28;20213;-79
2021/04/29 11:04:17;;;;;;;7.43;5.60;;;18.60;99.90;;;;;;5075372;28;20202;-79
2021/04/29 11:06:44;;;;;;;5.57;4.33;;;18.30;99.90;;;;;;5074099;28;20219;-78
2021/04/29 11:09:21;;;;;;;7.80;4.70;;;18.30;99.90;;;;;;5075986;28;20198;-78
2021/04/29 11:12:00;;;;;;;7.63;5.03;;;18.10;99.90;;;;;;5073198;28;20190;-78
2021/04/29 11:14:40;;;;;;;7.17;4.43;;;18.00;99.90;;;;;;5063100;28;20199;-78
2021/04/29 11:17:17;;;;;;;6.20;4.50;;;18.00;99.90;;;;;;5074122;28;20260;-78
2021/04/29 11:19:47;;;;;;;6.37;4.43;;;18.20;99.90;;;;;;5074234;28;20198;-79
2021/04/29 11:22:18;;;;;;;4.83;4.27;;;18.40;99.90;;;;;;5074135;28;20212;-78
2021/04/29 11:24:48;;;;;;;6.43;4.73;;;18.60;99.90;;;;;;5074993;28;20206;-79
2021/04/29 11:27:19;;;;;;;7.00;4.50;;;18.70;99.90;;;;;;5070013;28;20254;-78
2021/04/29 11:29:46;;;;;;;6.93;4.53;;;18.80;99.90;;;;;;5073343;28;20203;-79
2021/04/29 11:32:12;;;;;;;7.77;4.97;;;19.00;99.90;;;;;;5074650;28;20196;-78
2021/04/29 11:34:40;;;;;;;5.63;4.10;;;19.20;99.90;;;;;;5074083;28;20204;-78
2021/04/29 11:37:07;;;;;;;5.67;4.20;;;19.30;99.90;;;;;;5062181;28;20598;-78
2021/04/29 11:39:33;;;;;;;7.77;4.20;;;19.50;99.90;;;;;;5072726;28;20234;-79
2021/04/29 11:42:00;;;;;;;4.30;3.67;;;19.70;99.90;;;;;;5071627;28;20679;-77
2021/04/29 11:44:27;;;;;;;8.23;4.87;;;19.80;99.90;;;;;;5065493;28;20209;-78
2021/04/29 11:46:54;;;;;;;8.83;4.13;;;19.70;99.90;;;;;;5071134;28;20226;-79
2021/04/29 11:49:20;;;;;;;5.37;3.97;;;19.70;99.90;;;;;;5072562;28;20200;-79
2021/04/29 11:51:51;;;;;;;4.70;2.93;;;19.80;99.90;;;;;;5070495;28;20203;-79
2021/04/29 11:54:18;;;;;;;6.27;4.50;;;19.90;99.90;;;;;;5069364;28;20201;-78
2021/04/29 11:56:47;;;;;;;5.03;3.67;;;19.80;99.90;;;;;;5073415;28;20232;-78
2021/04/29 11:59:15;;;;;;;3.30;3.00;;;19.60;99.90;;;;;;5072936;28;20659;-77
2021/04/29 12:01:42;;;;;;;3.30;2.97;;;19.80;99.90;;;;;;5071046;28;20610;-79
2021/04/29 12:04:16;;;;;;;5.37;4.10;;;20.00;99.90;;;;;;5070772;28;20202;-77
2021/04/29 12:06:50;;;;;;;3.73;3.43;;;19.90;98.40;;;;;;5072548;28;20281;-79
2021/04/29 12:09:16;;;;;;;4.97;3.37;;;19.60;99.40;;;;;;5072754;28;20553;-77
2021/04/29 12:11:44;;;;;;;3.03;2.73;;;19.70;99.40;;;;;;5074050;28;20199;-79
2021/04/29 12:14:13;;;;;;;2.47;2.20;;;19.70;99.90;;;;;;5069795;28;20577;-79
2021/04/29 12:16:40;;;;;;;7.33;2.97;;;19.70;99.60;;;;;;5072918;28;20211;-79
2021/04/29 12:19:07;;;;;;;3.23;2.63;;;19.70;99.00;;;;;;5071025;28;20205;-78
2021/04/29 12:21:34;;;;;;;4.70;3.10;;;19.70;98.60;;;;;;5071932;28;20195;-78
2021/04/29 12:24:02;;;;;;;5.30;3.83;;;19.70;99.40;;;;;;5072529;28;20213;-77
2021/04/29 12:26:31;;;;;;;5.80;3.60;;;19.80;99.10;;;;;;5073119;28;20195;-77
2021/04/29 12:29:04;;;;;;;4.27;3.87;;;19.90;99.00;;;;;;5068890;28;20663;-78
2021/04/29 12:31:31;;;;;;;3.80;3.40;;;19.80;98.60;;;;;;5066352;28;20256;-78
2021/04/29 12:34:04;;;;;;;4.30;3.10;;;19.90;98.10;;;;;;5056334;28;20573;-78
2021/04/29 12:36:31;;;;;;;5.07;2.80;;;19.80;98.20;;;;;;5074551;28;20195;-78
2021/04/29 12:38:57;;;;;;;4.27;3.10;;;19.60;98.20;;;;;;5069288;28;20203;-77
2021/04/29 12:41:28;;;;;;;4.03;3.40;;;19.50;97.90;;;;;;5081483;28;20290;-79
2021/04/29 12:44:00;;;;;;;3.27;3.00;;;19.50;97.70;;;;;;5072129;28;20195;-79
2021/04/29 12:46:32;;;;;;;4.53;3.40;;;19.50;96.90;;;;;;5071506;28;20206;-77
2021/04/29 12:48:59;;;;;;;4.57;3.13;;;19.50;96.60;;;;;;5076909;28;20211;-78